Timeline UpdatesTrip UpdatesNews PostsPvt PostsTravel TipsAdmin PostsConv PostsFollowed PostsChat RequestsBlog PostsPNR Posts

Disclaimer
Search
 
 
Thu Apr 17, 2014 18:05:46 ISTHomeTrainsΣChainsAtlasPNRForumGalleryNewsFAQTripsMembersLoginFeedback
No Recent News for this Train
Other Trains in the News **new
Latest...
.
Sat Feb 01, 2014 (02:24PM)
⇐ Return Journey: Train# 18233

18234/Narmada Express

Nov 09 2013 (8:39PM)
Change Departure Station:
Change Arrival Station:
Post a Train Travel TipPost a Train Travel Tip **new
Post a Comment/Question/Picture/VideoPost a Comment/Question/Picture/Video
Pantry/Catering
✕ NO Pantry Car
✓ Catering Avbl
Loco/Rake Reversals
KTE/Katni Junction (6); ET/Itarsi Junction (7); UJN/Ujjain Junction (8);
RSA - Rake Sharing
No RSA..
Rake/Coach Composition
ENG-SLR-GS-GS-GS-S1-S2-S3-S4-S5-S6-S7-S8-S9-S10-A1-HA1-B1-B2-GS-GS-SLR (BSP-KTE), (ET-UJN); ENG-SLR-GS-GS-B2-B1-HA1-A1-S10-S9-S8-S7-S6-S5-S4-S3-S2-S1-GS-GS-GS-SLR (KTE-ET), (UJN,INDB).
Loco
ET WAM 4/6p (BSP-KTE) ET WDP 4/WDM-3A (KTE-ET) ET WAM 4/6p (ET-INDB)
News    PNR    Forum    Time-Table    Availability    Fare Chart    Map    Arr/Dep History    Trips    Gallery    ΣChains    X/O    Timeline    
Travel Time: 12h 49m    41 halts    Distance: 511 km    Avg Speed: 39 km/hr
Type: Mail/Express
Zone: SECR/South East Central
Departs @ 09:55 (Avg on time)
Platform# 8
SMTWTFS
Bilaspur Junction/BSP 
Arrives @ 22:44 (Avg 45m late)
Platform# 2
SMTWTFS
Kareli/KY 

41 halts. 60 intermediate Stations between Bilaspur Junction and Kareli

Show ALL intermediate Stations  Show Old Time-Table

#CodeStation NameX/OArrivesAvgDepartsAvgHaltPFDay#KmSpeedElevZoneAddress
1BSP»Bilaspur Junction (8)»  -09:55+0810.039271mSECRBilaspur, Chhattisgarh
2USLUslapur (3)  10:08+510:10+52m--18.676272mSECRBilaspur, Chhattisgarh
3GTKGhutkuX  10:16+710:17+91m--116.260288mSECRBilaspur, Chhattisgarh
4KLTRKalmitarX  10:25+1010:26+111m--124.243300mSECRUsalapur, Chhattisgarh
5KGBKargi RoadX  10:37+810:38+91m--132.054327mSECRBilaspur, Chhattisgarh
6SLKRSalkaroadX  10:47+1010:48+131m--140.242333mSECRGhutku, Chhattisgarh
7BIGBelgahna  10:59+1211:00+161m--147.865327mSECRBilaspur, Chhattisgarh
8TGQTenganmada  11:09+1711:10+201m--157.657367mSECRBelgahna, Chhattisgarh
9KGSKhongsaraX  11:19+2011:20+221m--166.147378mSECRBhanwar, Chhattisgarh
10BHTKBhanwar TonkX  11:36+2311:37+241m--178.646455mSECRKhodri, Chhattisgarh
11KOIKhodri  11:52+2411:53+281m--190.131558mSECRBilaspur, Chhattisgarh
12PNDPendra Road  12:15+2612:20+295m--1101.584620mSECRBilaspur district, Chhattisgarh
13HRBHarri  12:26+3412:27+361m--1110.071595mSECRVenkatnagar, Madhya Pradesh
14VKRVenkatnagar  12:36+3712:37+391m--1120.657549mSECRPendra Rd, Madhya Pradesh
15NIQNigaura  12:45+4012:46+431m--1128.271547mSECRAnuppur, Madhya Pradesh
16JTIJaithari  12:55+4312:56+451m--1138.865522mSECRAnuppur, Madhya Pradesh
17CLFChhulhaX  13:04+4613:05+491m--1147.621488mSECRMauhari, Madhya Pradesh
18APRAnuppur Junction (3)X  13:20+4213:25+435m--1152.785487mSECRAnuppur, Madhya Pradesh
19AALAmlai  13:34+4813:35+501m41165.458495mSECRAnuppur, Madhya Pradesh
20BUHBurhar  13:44+5013:45+511m21174.158494mSECRBurhar, Madhya Pradesh
21SNGPSinghpur  13:59+5314:00+551m--1187.77502mSECRBurhar, Madhya Pradesh
22SDLShahdolX  14:50+1615:00+1710m11193.666466mSECR, Madhya Pradesh
23BRSBirsinghpur  15:34+2515:35+261m21231.054461mSECRPali, Madhya Pradesh
24NRZBNowrozabad  15:43+2615:44+271m--1238.260458mSECRNational Highway 78, Madhya Pradesh
25KKIKarkeli  15:54+2715:55+281m--1248.250471mSECRUmaria, Madhya Pradesh
26UMRUmaria (3)X  16:10+2516:15+245m--1260.876469mSECRUmaria, Madhya Pradesh
27CHDChandia Road (1)X  16:30+2716:31+291m11279.845406mSECRNational Highway 78, Madhya Pradesh
28RPDRupaundX  16:54+2516:55+271m--1297.115417mSECRJhalwara, Madhya Pradesh
29JLWJhalwaraO  17:41+217:42+51m--1308.915406mSECRNational Highway 78, Madhya Pradesh
30KTEKatni Junction (6)X18:25+1118:45+2220m31319.4132387mWCRKatni, Madhya Pradesh
31NWRNiwar (2)  18:51+3818:52+441m--1332.658412mWCRPipraundh, Madhya Pradesh
32SNRRSansarpur (2)X  19:00+4519:01+461m--1340.452436mWCRNational Highway 7, Madhya Pradesh
33SBDSleemanabad Road (2)X  19:09+4519:10+461m--1347.363434mWCRSleemanabad, Madhya Pradesh
34DDCEDundi (2)X  19:19+4819:20+521m--1356.889415mWCRDundi, Madhya Pradesh
35SHRSihora Road (2)X  19:30+5519:32+552m--1371.748388mWCRJabalpur, Madhya Pradesh
36GSPRGosalpur (2)  19:46+5219:47+551m--1382.842396mWCRJabalpur, Madhya Pradesh
37DOEDeori (2)  20:02+5120:03+541m--1393.333392mWCRJabalpur, Madhya Pradesh
38ADTLAdhartal (2)  20:19+4920:20+541m--1402.116393mWCRJabalpur, Madhya Pradesh
39JBPJabalpur Junction (7)X  20:50+4121:00+4310m11410.123416mWCRJabalpur, Madhya Pradesh
40MMLMadan Mahal (3)  21:09+4121:11+412m11413.688428mWCRJabalpur, Madhya Pradesh
41SRIDShridham (3)X  21:45+4421:47+492m31463.348373mWCRShridham, Madhya Pradesh
42NUNarsinghpur (2)X  22:26+4622:28+482m21494.361365mWCRNarsimhapur, Madhya Pradesh
43KY•Kareli (2)•  22:44+4522:45+461m21510.780361mWCRKareli, Madhya Pradesh
44GARGadarwara (2)O  23:06+4523:07+461m21538.793352mWCRNarsinghpur, Madhya Pradesh
45SCKRSalichauka Road (2)  23:16+4823:17+501m--1552.647355mWCRGadarwara, Madhya Pradesh
46PPIPipariya (3)X  00:02+3200:04+332m22588.166338mWCRPiparia, Madhya Pradesh
47SGPSohagpur (2)  00:20+3100:21+321m--2605.838340mWCRSohagpur, Madhya Pradesh
48BGTABagra Tawa (2)X  00:57+2000:58+241m--2628.830338mWCRBagra Tawa, Madhya Pradesh
49ETItarsi Junction (7)X01:50+2602:05+3415m42655.357329mWCRItarsi 461111, Madhya Pradesh
50HBDHoshangabad (4)X  02:24+3502:25+361m--2673.451308mWCRHoshangabad, Madhya Pradesh
51ODGObaidulla Ganj  03:09+3603:10+371m22711.158450mWCRObaidullaganj Raisen Dist., Madhya Pradesh
52MDDPMandi Dip (1)X  03:24+3603:25+371m12724.654449mWCRMandideep, Madhya Pradesh
53HBJBhopal HabibGanj (5)  03:43+5703:44+591m62740.712496mWCRHabibGanj, Madhya Pradesh
54BPLBhopal Junction (6)X  04:15+2404:25+2410m--2747.029497mWCRBhopal, Madhya Pradesh
55BIHBairagarh (2)X  04:46+5204:47+531m12757.268522mWRBhopal, Madhya Pradesh
56SEHSehore (2)X  05:12+5205:13+521m12785.770500mWRMP 466001, Madhya Pradesh
57KPPKalapipal (2)  05:38+5105:39+521m--2814.758487mWRState Highway 41, Madhya Pradesh
58SJPShujalpur (3)  05:52+5105:53+521m--2827.360453mWRShujalpur, Madhya Pradesh
59AKDAkodia (2)  06:06+5106:07+521m--2840.472460mWRDist. Shajapur, Madhya Pradesh
60KSHKali Sindh (2)X  06:22+5306:23+531m--2858.361443mWRShajapur, Madhya Pradesh
61BCHBerchha (2)X  06:35+5306:36+541m--2870.554493mWRShajapur, Madhya Pradesh
62MKCMaksi Junction (3)X  06:57+5206:59+522m--2889.364510mWRMakshi, Madhya Pradesh
63TANTarana Road  07:08+5407:09+541m--2898.931498mWRMaksi, Madhya Pradesh
64UJNUjjain Junction (8)O08:10+2608:30+3120m--2930.423492mWRUjjain, Madhya Pradesh
65VRGVikram Nagar  08:44+3008:45+361m--2935.825503mWRUjjain, Madhya Pradesh
66KDHAKarchhaX  09:15+2109:16+261m--2948.126514mWRState Highway 18, Madhya Pradesh
67UDMUndasa Madhopur  09:29+2309:30+241m--2953.787528mWRState Highway 18, Madhya Pradesh
68NRGRNaranjipur (1)  09:35+2209:36+261m12960.942537mWRDewas, Madhya Pradesh
69DWXDewas Junction (2)  09:50+2309:52+262m--2970.832541mWRDewas, Madhya Pradesh
70BLAXBarlaiX  10:18+1410:19+171m--2984.535519mWRIndore, Madhya Pradesh
71MGGMangliyagaon (2)  10:36+1210:37+141m--2994.553531mWRMangilya, Madhya Pradesh
72LMNRLaxmibai Nagar  10:50+2010:51+221m--21006.023544mWRIndore, Madhya Pradesh
73INDBIndore Junction BG (3)  11:00+22-321009.5-552mWRIndore, Madhya Pradesh
Scroll to Top
Scroll to Bottom